Mistelbach, Austria
Current Conditions -  °F | °C
As of 9:20 AM on Thursday 23 Oct 2014 (Local Time) from LOXT Reporting Station
Drizzle Drizzle  
Wind Chill: 46°   Ceiling: 600
Heat Index: 46°   Visibility: 1.1mi
Dew Point: 46°   Wind: 3mph
Humidity: 100%   Direction: NA
Pressure: 29.83"   Gusts: NA
Location:  48.57°N, 16.57°E
Report Text: LOXT 230720Z VRB03KT 1800 -DZ BR SCT003ST OVC006ST 08/08 Q1010 NOSIG RMK OVC
Loading
Personal Weather Stations






























Interactive Weather Map
Tropical Storm Tracking
New forecast layout! Learn more

10-Day Weather Forecast

Advertisements
Track Severe Weather on mobile